Details From EGCC - Manchester
To EGGP - Liverpool John Lennon
Flight Number -
Tags Decoded
Created
Modified
Stats Distance 20 nm / 37 km
Max Altitude 0 ft / 0 m
Waypoints 2
Social Downloads 4
Likes 0
Share VATSIM

Download

Looking for another format? Having issues loading an existing format? Contact us
Advertisement - Login to hide

Notes

Decoded

Route

EGCC EGGP

ID Type Via Altitude Latitude Longitude Leg Dist Tot Dist Heading (true) Name
O EGCC APT - 0 ft / 0 m 53.33197˚ -2.31066˚ - 0 nm - -
O EGGP APT - 0 ft / 0 m 53.33288˚ -2.86602˚ 19 nm 19 nm 270° / 270° -

Altitude Profile

Advertisement - Login to hide

EGCC

Details ICAO EGCC (MAN)
Name Manchester Intl
Region United Kingdom
Timezone Europe/London (UTC+0.0)
Stats Elevation 257 ft / 78 m (AMSL)
Location 53.347141° -2.283954°
Runways 2
Magnetic Variation 1.463° W

METAR

EGCC 112020Z AUTO 30003KT 9999 NCD M01/M04 Q0997 NOSIG

Decode

TAF

TAF EGCC 111659Z 1118/1224 VRB04KT 9999 FEW045 TEMPO 1118/1119 8000 BECMG 1119/1122 6000 BECMG 1122/1124 4000 BR PROB30 1200/1212 0300 FZFG VV/// BECMG 1213/1216 9999 NSW TEMPO 1220/1224 6000 RA BKN008

Decode

Departure Runways

ID Width Length Bearing (true) Bearing (mag) Surface Threshold Offset Overrun Length
05L 151 ft / 46 m 9,981 ft / 3,042 m 50.99° 52.45° Asphalt 1,401 ft / 427 m 0 ft / 0 m
05R 151 ft / 46 m 9,952 ft / 3,033 m 50.97° 52.43° Asphalt 0 ft / 0 m 26 ft / 8 m
23L 151 ft / 46 m 9,952 ft / 3,033 m 231.00° 232.46° Asphalt 561 ft / 171 m 0 ft / 0 m
23R 151 ft / 46 m 9,981 ft / 3,042 m 231.02° 232.48° Asphalt 597 ft / 182 m 0 ft / 0 m

EGGP

Details ICAO EGGP (LPL)
Name Liverpool
Region United Kingdom
Timezone Europe/London (UTC+0.0)
Stats Elevation 80 ft / 24 m (AMSL)
Location 53.333632° -2.849769°
Runways 1
Magnetic Variation 1.676° W

METAR

EGGP 112020Z 32008KT CAVOK 01/M01 Q0997

Decode

TAF

TAF TAF EGGP 111659Z 1118/1218 30008KT 9999 FEW045 PROB30 TEMPO 1118/1121 8000 BECMG 1121/1124 6000 PROB30 1200/1212 0300 FZFG VV/// BECMG 1212/1215 21012KT 9999 NSW

Decode

Destination Runways

ID Width Length Bearing (true) Bearing (mag) Surface Threshold Offset Overrun Length
09 151 ft / 46 m 7,466 ft / 2,276 m 85.59° 87.27° Asphalt 180 ft / 55 m 0 ft / 0 m
27 151 ft / 46 m 7,466 ft / 2,276 m 265.61° 267.29° Asphalt 0 ft / 0 m 0 ft / 0 m

Approach Navaids

Runway Type Ident Frequency Range Bearing (true) Bearing (mag) Slope Elevation
09 Localiser ILVR 111.75 MHz 18 nm / 33 km 85.61° 87.29° - 77 ft / 23 m (AMSL)
09 Glidescope ILVR 111.75 MHz 10 nm / 19 km 85.60° 87.28° 3.00° 80 ft / 24 m (AMSL)
09 DME ILVR 111.75 MHz 18 nm / 33 km - - - 88 ft / 27 m (AMSL)
27 Localiser ILQ 111.75 MHz 18 nm / 33 km 265.05° 266.72° - 55 ft / 17 m (AMSL)
27 Glidescope ILQ 111.75 MHz 10 nm / 19 km 265.60° 267.28° 3.00° 80 ft / 24 m (AMSL)
27 DME ILQ 111.75 MHz 18 nm / 33 km - - - 88 ft / 27 m (AMSL)

Popular Alternatives